Terminal Aerodrome Forecast
Issued by NWS Shreveport, LA

Home | Current Version | Previous Version | Text Only | Print | Product List | Glossary On
Versions: 1 2 3 4 5 6 7 8 9 10 11 12 13 14 15
000
FTUS44 KSHV 290500
TAFMLU
TAF
KMLU 290525Z 2906/3006 19003KT P6SM SCT250
      TEMPO 2910/2913 4SM BR
     FM291400 18006KT P6SM SCT060
     FM291800 18006KT P6SM VCTS BKN050CB
     FM300000 18004KT P6SM VCSH BKN050 BKN110=

USA.gov is the U.S. government's official web portal to all federal, state and local government web resources and services.